createdAt,value
2018-10-07T00:11:40.172Z,11.09
2018-10-07T00:32:17.286Z,10.94
2018-10-07T00:52:58.934Z,10.69
2018-10-07T01:13:38.892Z,10.68
2018-10-07T01:34:17.526Z,10.36
2018-10-07T01:54:54.353Z,10.34
2018-10-07T02:15:32.695Z,10.25
2018-10-07T02:36:12.885Z,10.06
2018-10-07T02:56:51.223Z,9.92
2018-10-07T03:17:30.491Z,9.90
2018-10-07T03:38:10.679Z,9.74
2018-10-07T03:58:49.022Z,9.59
2018-10-07T04:19:29.213Z,9.53
2018-10-07T04:40:10.624Z,9.41
2018-10-07T05:00:54.195Z,9.25
2018-10-07T05:21:32.228Z,9.20
2018-10-07T06:00:16.235Z,9.20
2018-10-07T06:20:58.579Z,9.45
2018-10-07T06:41:41.092Z,10.04
2018-10-07T07:02:18.027Z,10.47
2018-10-07T07:22:55.584Z,10.77
2018-10-07T07:43:31.647Z,10.95
2018-10-07T08:04:08.760Z,11.25
2018-10-07T08:24:46.327Z,11.56
2018-10-07T08:45:23.301Z,11.95
2018-10-07T09:06:02.564Z,12.59
2018-10-07T09:26:43.996Z,13.21
2018-10-07T09:47:22.021Z,13.73
2018-10-07T10:29:26.940Z,14.12
2018-10-07T10:50:44.917Z,14.42
2018-10-07T11:34:14.626Z,15.32
2018-10-07T11:55:07.360Z,15.38
2018-10-07T12:15:45.137Z,15.50
2018-10-07T12:36:29.637Z,15.65
2018-10-07T12:57:08.891Z,15.76
2018-10-07T13:17:52.157Z,15.83
2018-10-07T13:55:03.385Z,15.48
2018-10-07T14:15:42.927Z,15.22
2018-10-07T14:36:19.085Z,15.04
2018-10-07T14:57:02.106Z,14.76
2018-10-07T15:17:43.520Z,14.73
2018-10-07T15:38:21.559Z,14.84
2018-10-07T15:59:00.839Z,14.65
2018-10-07T16:19:42.256Z,14.24
2018-10-07T16:40:21.510Z,13.92
2018-10-07T17:01:00.775Z,13.69
2018-10-07T17:21:39.413Z,13.56
2018-10-07T17:42:22.383Z,13.36
2018-10-07T18:03:00.846Z,13.20
2018-10-07T18:23:36.913Z,13.02
2018-10-07T18:44:16.367Z,12.94
2018-10-07T19:04:59.442Z,12.71
2018-10-07T19:25:43.623Z,12.63
2018-10-07T19:46:23.813Z,12.48
2018-10-07T20:07:00.316Z,12.09
2018-10-07T20:27:42.813Z,11.81
2018-10-07T20:48:22.840Z,11.52
2018-10-07T21:09:03.949Z,11.21
2018-10-07T21:29:41.434Z,11.03
2018-10-07T21:50:17.568Z,10.73
2018-10-07T22:10:57.760Z,10.66
2018-10-07T22:31:37.021Z,10.42
2018-10-07T22:52:14.439Z,10.30
2018-10-07T23:12:51.561Z,10.07
2018-10-07T23:33:29.904Z,9.85
2018-10-07T23:54:09.171Z,9.72
